sensor_id;sensor_type;location;lat;lon;timestamp;pressure;altitude;pressure_sealevel;temperature;humidity
71793;BME280;59639;51.170;6.456;2022-07-05T00:00:31;101537.69;;;19.59;49.55
71793;BME280;59639;51.170;6.456;2022-07-05T00:02:56;101539.09;;;19.70;49.36
71793;BME280;59639;51.170;6.456;2022-07-05T00:05:21;101537.88;;;19.58;50.02
71793;BME280;59639;51.170;6.456;2022-07-05T00:07:47;101529.63;;;19.59;50.15
71793;BME280;59639;51.170;6.456;2022-07-05T00:10:12;101532.69;;;19.71;49.84
71793;BME280;59639;51.170;6.456;2022-07-05T00:12:37;101537.25;;;19.56;49.83
71793;BME280;59639;51.170;6.456;2022-07-05T00:15:03;101526.13;;;19.44;50.36
71793;BME280;59639;51.170;6.456;2022-07-05T00:17:29;101532.69;;;19.42;50.21
71793;BME280;59639;51.170;6.456;2022-07-05T00:19:54;101527.00;;;19.22;51.08
71793;BME280;59639;51.170;6.456;2022-07-05T00:22:20;101537.38;;;19.25;50.56
71793;BME280;59639;51.170;6.456;2022-07-05T00:24:45;101534.41;;;19.20;50.87
71793;BME280;59639;51.170;6.456;2022-07-05T00:27:11;101531.53;;;19.21;51.13
71793;BME280;59639;51.170;6.456;2022-07-05T00:29:36;101531.88;;;19.18;51.33
71793;BME280;59639;51.170;6.456;2022-07-05T00:32:01;101535.63;;;19.17;51.37
71793;BME280;59639;51.170;6.456;2022-07-05T00:34:27;101528.03;;;19.21;51.08
71793;BME280;59639;51.170;6.456;2022-07-05T00:36:53;101536.22;;;19.05;51.74
71793;BME280;59639;51.170;6.456;2022-07-05T00:39:18;101529.56;;;19.01;52.00
71793;BME280;59639;51.170;6.456;2022-07-05T00:41:44;101530.09;;;18.96;52.18
71793;BME280;59639;51.170;6.456;2022-07-05T00:44:10;101537.72;;;19.07;51.64
71793;BME280;59639;51.170;6.456;2022-07-05T00:46:38;101530.22;;;19.03;52.17
71793;BME280;59639;51.170;6.456;2022-07-05T00:49:05;101532.72;;;19.19;51.69
71793;BME280;59639;51.170;6.456;2022-07-05T00:51:33;101542.44;;;19.20;51.46
71793;BME280;59639;51.170;6.456;2022-07-05T00:53:59;101533.09;;;19.16;51.70
71793;BME280;59639;51.170;6.456;2022-07-05T00:56:25;101538.44;;;19.01;52.10
71793;BME280;59639;51.170;6.456;2022-07-05T00:58:51;101538.50;;;18.93;52.24
71793;BME280;59639;51.170;6.456;2022-07-05T01:01:17;101540.84;;;18.96;52.40
71793;BME280;59639;51.170;6.456;2022-07-05T01:03:43;101534.72;;;18.87;52.43
71793;BME280;59639;51.170;6.456;2022-07-05T01:06:11;101531.94;;;18.96;52.23
71793;BME280;59639;51.170;6.456;2022-07-05T01:08:38;101536.44;;;18.80;53.06
71793;BME280;59639;51.170;6.456;2022-07-05T01:11:05;101536.31;;;18.74;52.93
71793;BME280;59639;51.170;6.456;2022-07-05T01:13:31;101544.06;;;18.91;52.80
71793;BME280;59639;51.170;6.456;2022-07-05T01:15:56;101539.81;;;18.97;52.55
71793;BME280;59639;51.170;6.456;2022-07-05T01:18:22;101538.75;;;18.83;52.70
71793;BME280;59639;51.170;6.456;2022-07-05T01:20:48;101539.59;;;18.84;52.85
71793;BME280;59639;51.170;6.456;2022-07-05T01:23:14;101538.16;;;18.73;53.11
71793;BME280;59639;51.170;6.456;2022-07-05T01:25:41;101537.16;;;18.74;53.54
71793;BME280;59639;51.170;6.456;2022-07-05T01:28:06;101543.50;;;18.50;53.91
71793;BME280;59639;51.170;6.456;2022-07-05T01:30:35;101540.91;;;18.65;53.28
71793;BME280;59639;51.170;6.456;2022-07-05T01:33:02;101544.25;;;18.67;53.67
71793;BME280;59639;51.170;6.456;2022-07-05T01:35:27;101535.19;;;18.68;53.44
71793;BME280;59639;51.170;6.456;2022-07-05T01:37:52;101545.31;;;18.81;52.98
71793;BME280;59639;51.170;6.456;2022-07-05T01:40:19;101549.78;;;18.66;53.46
71793;BME280;59639;51.170;6.456;2022-07-05T01:42:46;101547.16;;;18.80;52.95
71793;BME280;59639;51.170;6.456;2022-07-05T01:45:12;101552.75;;;18.93;52.42
71793;BME280;59639;51.170;6.456;2022-07-05T01:47:44;101543.84;;;18.93;52.31
71793;BME280;59639;51.170;6.456;2022-07-05T01:50:13;101542.47;;;18.82;52.32
71793;BME280;59639;51.170;6.456;2022-07-05T01:52:42;101541.75;;;18.66;53.05
71793;BME280;59639;51.170;6.456;2022-07-05T01:55:09;101532.78;;;18.73;52.67
71793;BME280;59639;51.170;6.456;2022-07-05T01:57:34;101532.31;;;18.70;52.59
71793;BME280;59639;51.170;6.456;2022-07-05T01:59:59;101538.22;;;18.65;52.69
71793;BME280;59639;51.170;6.456;2022-07-05T02:02:25;101537.44;;;18.79;52.26
71793;BME280;59639;51.170;6.456;2022-07-05T02:04:50;101535.13;;;18.54;52.58
71793;BME280;59639;51.170;6.456;2022-07-05T02:07:15;101536.56;;;18.64;52.25
71793;BME280;59639;51.170;6.456;2022-07-05T02:09:41;101536.44;;;18.80;51.58
71793;BME280;59639;51.170;6.456;2022-07-05T02:12:08;101540.78;;;18.81;52.01
71793;BME280;59639;51.170;6.456;2022-07-05T02:14:34;101529.09;;;18.97;51.36
71793;BME280;59639;51.170;6.456;2022-07-05T02:16:59;101531.22;;;19.02;51.34
71793;BME280;59639;51.170;6.456;2022-07-05T02:19:25;101540.88;;;18.88;51.63
71793;BME280;59639;51.170;6.456;2022-07-05T02:21:50;101536.31;;;18.97;51.47
71793;BME280;59639;51.170;6.456;2022-07-05T02:24:15;101540.19;;;18.71;52.07
71793;BME280;59639;51.170;6.456;2022-07-05T02:26:41;101533.03;;;18.64;52.14
71793;BME280;59639;51.170;6.456;2022-07-05T02:29:06;101530.47;;;18.70;51.93
71793;BME280;59639;51.170;6.456;2022-07-05T02:31:32;101522.09;;;18.88;51.72
71793;BME280;59639;51.170;6.456;2022-07-05T02:33:58;101529.63;;;18.92;51.28
71793;BME280;59639;51.170;6.456;2022-07-05T02:36:24;101536.31;;;18.97;51.23
71793;BME280;59639;51.170;6.456;2022-07-05T02:38:49;101540.66;;;18.75;51.82
71793;BME280;59639;51.170;6.456;2022-07-05T02:41:14;101539.63;;;18.53;52.38
71793;BME280;59639;51.170;6.456;2022-07-05T02:43:40;101551.63;;;18.65;52.12
71793;BME280;59639;51.170;6.456;2022-07-05T02:46:07;101536.63;;;18.56;52.65
71793;BME280;59639;51.170;6.456;2022-07-05T02:48:33;101541.88;;;18.72;52.15
71793;BME280;59639;51.170;6.456;2022-07-05T02:50:59;101546.88;;;18.75;52.07
71793;BME280;59639;51.170;6.456;2022-07-05T02:53:25;101546.97;;;18.59;52.74
71793;BME280;59639;51.170;6.456;2022-07-05T02:55:51;101551.94;;;18.70;51.97
71793;BME280;59639;51.170;6.456;2022-07-05T02:58:16;101543.50;;;18.50;52.32
71793;BME280;59639;51.170;6.456;2022-07-05T03:00:43;101549.00;;;18.80;51.97
71793;BME280;59639;51.170;6.456;2022-07-05T03:03:09;101549.31;;;18.85;51.57
71793;BME280;59639;51.170;6.456;2022-07-05T03:05:34;101550.38;;;18.76;52.21
71793;BME280;59639;51.170;6.456;2022-07-05T03:08:00;101554.97;;;18.67;52.44
71793;BME280;59639;51.170;6.456;2022-07-05T03:10:25;101549.41;;;18.69;52.57
71793;BME280;59639;51.170;6.456;2022-07-05T03:12:51;101546.19;;;18.73;52.57
71793;BME280;59639;51.170;6.456;2022-07-05T03:15:16;101549.66;;;18.59;52.95
71793;BME280;59639;51.170;6.456;2022-07-05T03:17:41;101556.31;;;18.63;52.85
71793;BME280;59639;51.170;6.456;2022-07-05T03:20:07;101554.38;;;18.49;52.92
71793;BME280;59639;51.170;6.456;2022-07-05T03:22:33;101559.50;;;18.36;53.45
71793;BME280;59639;51.170;6.456;2022-07-05T03:24:58;101553.00;;;18.30;53.91
71793;BME280;59639;51.170;6.456;2022-07-05T03:27:24;101552.84;;;18.32;53.62
71793;BME280;59639;51.170;6.456;2022-07-05T03:29:49;101557.00;;;18.65;52.88
71793;BME280;59639;51.170;6.456;2022-07-05T03:32:14;101558.50;;;18.37;53.34
71793;BME280;59639;51.170;6.456;2022-07-05T03:34:40;101557.84;;;18.35;53.24
71793;BME280;59639;51.170;6.456;2022-07-05T03:37:05;101561.50;;;18.42;53.70
71793;BME280;59639;51.170;6.456;2022-07-05T03:39:30;101552.69;;;18.25;54.15
71793;BME280;59639;51.170;6.456;2022-07-05T03:41:56;101558.94;;;18.18;53.64
71793;BME280;59639;51.170;6.456;2022-07-05T03:44:21;101555.75;;;18.22;54.16
71793;BME280;59639;51.170;6.456;2022-07-05T03:46:46;101555.53;;;18.24;54.14
71793;BME280;59639;51.170;6.456;2022-07-05T03:49:12;101547.13;;;18.35;54.15
71793;BME280;59639;51.170;6.456;2022-07-05T03:51:37;101548.34;;;18.24;54.61
71793;BME280;59639;51.170;6.456;2022-07-05T03:54:03;101552.97;;;18.08;55.34
71793;BME280;59639;51.170;6.456;2022-07-05T03:56:29;101547.41;;;18.09;55.27
71793;BME280;59639;51.170;6.456;2022-07-05T03:58:54;101552.19;;;17.91;55.98
71793;BME280;59639;51.170;6.456;2022-07-05T04:01:20;101550.19;;;17.93;56.20
71793;BME280;59639;51.170;6.456;2022-07-05T04:03:46;101556.03;;;17.96;55.69
71793;BME280;59639;51.170;6.456;2022-07-05T04:06:11;101561.09;;;17.83;56.09
71793;BME280;59639;51.170;6.456;2022-07-05T04:08:37;101566.25;;;17.93;56.09
71793;BME280;59639;51.170;6.456;2022-07-05T04:11:03;101562.25;;;17.89;56.22
71793;BME280;59639;51.170;6.456;2022-07-05T04:13:29;101554.00;;;17.98;56.08
71793;BME280;59639;51.170;6.456;2022-07-05T04:15:54;101559.16;;;18.08;55.78
71793;BME280;59639;51.170;6.456;2022-07-05T04:18:21;101558.13;;;18.17;55.59
71793;BME280;59639;51.170;6.456;2022-07-05T04:20:47;101562.84;;;18.07;56.13
71793;BME280;59639;51.170;6.456;2022-07-05T04:23:12;101553.28;;;18.13;55.81
71793;BME280;59639;51.170;6.456;2022-07-05T04:25:38;101562.19;;;18.36;54.90
71793;BME280;59639;51.170;6.456;2022-07-05T04:28:03;101563.06;;;18.28;55.14
71793;BME280;59639;51.170;6.456;2022-07-05T04:30:29;101576.59;;;18.35;55.21
71793;BME280;59639;51.170;6.456;2022-07-05T04:32:54;101573.50;;;18.46;54.63
71793;BME280;59639;51.170;6.456;2022-07-05T04:35:21;101578.88;;;18.46;54.27
71793;BME280;59639;51.170;6.456;2022-07-05T04:37:47;101577.44;;;18.35;54.73
71793;BME280;59639;51.170;6.456;2022-07-05T04:40:13;101577.97;;;18.31;55.31
71793;BME280;59639;51.170;6.456;2022-07-05T04:42:38;101578.63;;;18.33;55.29
71793;BME280;59639;51.170;6.456;2022-07-05T04:45:05;101584.16;;;18.31;55.11
71793;BME280;59639;51.170;6.456;2022-07-05T04:47:30;101587.47;;;18.33;54.75
71793;BME280;59639;51.170;6.456;2022-07-05T04:49:56;101583.78;;;18.34;54.57
71793;BME280;59639;51.170;6.456;2022-07-05T04:52:22;101584.84;;;18.25;54.80
71793;BME280;59639;51.170;6.456;2022-07-05T04:54:48;101592.34;;;18.30;55.01
71793;BME280;59639;51.170;6.456;2022-07-05T04:57:13;101586.75;;;18.17;55.36
71793;BME280;59639;51.170;6.456;2022-07-05T04:59:39;101584.00;;;18.25;55.69
71793;BME280;59639;51.170;6.456;2022-07-05T05:02:04;101596.56;;;18.24;55.35
71793;BME280;59639;51.170;6.456;2022-07-05T05:04:30;101593.88;;;18.32;55.64
71793;BME280;59639;51.170;6.456;2022-07-05T05:06:55;101598.38;;;18.32;55.91
71793;BME280;59639;51.170;6.456;2022-07-05T05:09:20;101598.91;;;18.27;55.53
71793;BME280;59639;51.170;6.456;2022-07-05T05:11:46;101599.25;;;18.24;55.71
71793;BME280;59639;51.170;6.456;2022-07-05T05:14:11;101599.69;;;18.36;55.55
71793;BME280;59639;51.170;6.456;2022-07-05T05:16:37;101605.28;;;18.26;55.81
71793;BME280;59639;51.170;6.456;2022-07-05T05:19:02;101600.06;;;18.33;55.79
71793;BME280;59639;51.170;6.456;2022-07-05T05:21:28;101606.19;;;18.41;55.20
71793;BME280;59639;51.170;6.456;2022-07-05T05:23:53;101611.03;;;18.46;54.97
71793;BME280;59639;51.170;6.456;2022-07-05T05:26:18;101596.75;;;18.23;54.77
71793;BME280;59639;51.170;6.456;2022-07-05T05:28:44;101603.34;;;18.43;54.44
71793;BME280;59639;51.170;6.456;2022-07-05T05:31:09;101606.63;;;18.53;53.94
71793;BME280;59639;51.170;6.456;2022-07-05T05:33:35;101603.63;;;18.48;53.69
71793;BME280;59639;51.170;6.456;2022-07-05T05:36:00;101612.63;;;18.63;52.69
71793;BME280;59639;51.170;6.456;2022-07-05T05:38:26;101613.03;;;18.52;53.34
71793;BME280;59639;51.170;6.456;2022-07-05T05:40:52;101619.16;;;18.30;54.33
71793;BME280;59639;51.170;6.456;2022-07-05T05:43:17;101621.38;;;18.49;53.41
71793;BME280;59639;51.170;6.456;2022-07-05T05:45:42;101615.88;;;18.50;53.27
71793;BME280;59639;51.170;6.456;2022-07-05T05:48:08;101618.88;;;18.56;52.74
71793;BME280;59639;51.170;6.456;2022-07-05T05:50:35;101619.38;;;18.51;53.37
71793;BME280;59639;51.170;6.456;2022-07-05T05:53:02;101620.97;;;18.37;53.91
71793;BME280;59639;51.170;6.456;2022-07-05T05:55:29;101620.25;;;18.43;54.07
71793;BME280;59639;51.170;6.456;2022-07-05T05:57:54;101622.88;;;18.60;53.20
71793;BME280;59639;51.170;6.456;2022-07-05T06:00:21;101632.97;;;18.80;52.73
71793;BME280;59639;51.170;6.456;2022-07-05T06:02:48;101634.28;;;18.84;52.10
71793;BME280;59639;51.170;6.456;2022-07-05T06:05:15;101624.31;;;19.16;51.69
71793;BME280;59639;51.170;6.456;2022-07-05T06:07:54;101635.59;;;19.11;51.38
71793;BME280;59639;51.170;6.456;2022-07-05T06:10:21;101635.91;;;19.16;50.65
71793;BME280;59639;51.170;6.456;2022-07-05T06:12:48;101635.59;;;19.11;50.25
71793;BME280;59639;51.170;6.456;2022-07-05T06:15:14;101649.34;;;19.08;51.19
71793;BME280;59639;51.170;6.456;2022-07-05T06:17:39;101650.69;;;19.12;51.36
71793;BME280;59639;51.170;6.456;2022-07-05T06:20:33;101645.97;;;19.14;51.20
71793;BME280;59639;51.170;6.456;2022-07-05T06:23:00;101644.19;;;19.07;51.03
71793;BME280;59639;51.170;6.456;2022-07-05T06:25:27;101647.00;;;19.28;50.80
71793;BME280;59639;51.170;6.456;2022-07-05T06:27:57;101646.75;;;19.46;49.99
71793;BME280;59639;51.170;6.456;2022-07-05T06:30:24;101651.09;;;19.47;50.40
71793;BME280;59639;51.170;6.456;2022-07-05T06:32:51;101649.75;;;19.43;50.51
71793;BME280;59639;51.170;6.456;2022-07-05T06:35:17;101645.31;;;19.72;49.72
71793;BME280;59639;51.170;6.456;2022-07-05T06:37:48;101646.59;;;19.62;49.37
71793;BME280;59639;51.170;6.456;2022-07-05T06:40:20;101652.31;;;19.73;49.41
71793;BME280;59639;51.170;6.456;2022-07-05T06:42:46;101658.09;;;19.85;48.25
71793;BME280;59639;51.170;6.456;2022-07-05T06:45:11;101651.59;;;20.09;47.86
71793;BME280;59639;51.170;6.456;2022-07-05T06:47:37;101653.81;;;20.20;46.53
71793;BME280;59639;51.170;6.456;2022-07-05T06:50:04;101653.66;;;20.22;47.08
71793;BME280;59639;51.170;6.456;2022-07-05T06:52:30;101661.34;;;20.10;46.94
71793;BME280;59639;51.170;6.456;2022-07-05T06:54:57;101662.91;;;20.34;46.44
71793;BME280;59639;51.170;6.456;2022-07-05T06:57:23;101656.91;;;20.32;46.53
71793;BME280;59639;51.170;6.456;2022-07-05T06:59:49;101665.13;;;20.45;46.44
71793;BME280;59639;51.170;6.456;2022-07-05T07:02:14;101664.47;;;20.28;46.19
71793;BME280;59639;51.170;6.456;2022-07-05T07:04:40;101658.81;;;20.52;46.69
71793;BME280;59639;51.170;6.456;2022-07-05T07:07:05;101662.69;;;20.65;46.12
71793;BME280;59639;51.170;6.456;2022-07-05T07:10:00;101661.81;;;20.79;45.33
71793;BME280;59639;51.170;6.456;2022-07-05T07:12:26;101660.09;;;20.92;44.45
71793;BME280;59639;51.170;6.456;2022-07-05T07:14:51;101668.84;;;21.37;43.75
71793;BME280;59639;51.170;6.456;2022-07-05T07:17:17;101669.88;;;21.92;42.62
71793;BME280;59639;51.170;6.456;2022-07-05T07:19:42;101660.59;;;22.42;40.62
71793;BME280;59639;51.170;6.456;2022-07-05T07:22:08;101664.19;;;23.42;37.44
71793;BME280;59639;51.170;6.456;2022-07-05T07:24:33;101666.78;;;25.42;33.28
71793;BME280;59639;51.170;6.456;2022-07-05T07:26:59;101664.78;;;26.89;30.62
71793;BME280;59639;51.170;6.456;2022-07-05T07:29:33;101664.53;;;28.94;28.05
71793;BME280;59639;51.170;6.456;2022-07-05T07:31:59;101670.97;;;28.88;26.98
71793;BME280;59639;51.170;6.456;2022-07-05T07:34:26;101664.06;;;29.97;25.74
71793;BME280;59639;51.170;6.456;2022-07-05T07:36:52;101674.91;;;29.75;26.09
71793;BME280;59639;51.170;6.456;2022-07-05T07:39:18;101672.50;;;30.39;24.45
71793;BME280;59639;51.170;6.456;2022-07-05T07:41:44;101669.78;;;30.17;24.83
71793;BME280;59639;51.170;6.456;2022-07-05T07:44:09;101678.34;;;30.96;24.38
71793;BME280;59639;51.170;6.456;2022-07-05T07:46:34;101679.47;;;31.59;23.00
71793;BME280;59639;51.170;6.456;2022-07-05T07:49:00;101675.22;;;30.83;22.93
71793;BME280;59639;51.170;6.456;2022-07-05T07:51:26;101683.88;;;30.31;23.83
71793;BME280;59639;51.170;6.456;2022-07-05T07:53:52;101679.97;;;29.67;24.33
71793;BME280;59639;51.170;6.456;2022-07-05T07:56:17;101672.75;;;29.27;24.10
71793;BME280;59639;51.170;6.456;2022-07-05T07:58:43;101679.47;;;30.47;23.07
71793;BME280;59639;51.170;6.456;2022-07-05T08:01:08;101675.03;;;31.48;21.96
71793;BME280;59639;51.170;6.456;2022-07-05T08:03:40;101672.94;;;31.28;22.21
71793;BME280;59639;51.170;6.456;2022-07-05T08:06:07;101687.94;;;29.23;25.01
71793;BME280;59639;51.170;6.456;2022-07-05T08:08:37;101682.19;;;31.22;22.21
71793;BME280;59639;51.170;6.456;2022-07-05T08:11:03;101692.09;;;30.53;22.96
71793;BME280;59639;51.170;6.456;2022-07-05T08:13:29;101690.16;;;30.31;23.06
71793;BME280;59639;51.170;6.456;2022-07-05T08:15:54;101684.72;;;31.02;22.38
71793;BME280;59639;51.170;6.456;2022-07-05T08:18:20;101682.66;;;32.30;21.57
71793;BME280;59639;51.170;6.456;2022-07-05T08:21:03;101678.72;;;31.32;22.02
71793;BME280;59639;51.170;6.456;2022-07-05T08:23:47;101692.03;;;32.44;21.12
71793;BME280;59639;51.170;6.456;2022-07-05T08:26:13;101684.91;;;31.91;20.30
71793;BME280;59639;51.170;6.456;2022-07-05T08:28:38;101681.38;;;32.00;21.32
71793;BME280;59639;51.170;6.456;2022-07-05T08:31:04;101682.16;;;30.03;23.75
71793;BME280;59639;51.170;6.456;2022-07-05T08:33:29;101682.69;;;29.67;24.67
71793;BME280;59639;51.170;6.456;2022-07-05T08:35:55;101681.31;;;31.53;22.47
71793;BME280;59639;51.170;6.456;2022-07-05T08:38:20;101681.38;;;32.47;22.01
71793;BME280;59639;51.170;6.456;2022-07-05T08:40:49;101686.19;;;33.48;20.36
71793;BME280;59639;51.170;6.456;2022-07-05T08:43:15;101673.69;;;31.55;22.20
71793;BME280;59639;51.170;6.456;2022-07-05T08:45:43;101675.09;;;29.69;24.78
71793;BME280;59639;51.170;6.456;2022-07-05T08:48:09;101679.13;;;30.43;23.95
71793;BME280;59639;51.170;6.456;2022-07-05T08:50:37;101679.69;;;30.67;23.80
71793;BME280;59639;51.170;6.456;2022-07-05T08:53:05;101670.81;;;31.67;22.14
71793;BME280;59639;51.170;6.456;2022-07-05T08:55:32;101676.84;;;31.74;22.01
71793;BME280;59639;51.170;6.456;2022-07-05T08:57:58;101668.44;;;31.49;22.49
71793;BME280;59639;51.170;6.456;2022-07-05T09:00:23;101683.56;;;30.71;23.39
71793;BME280;59639;51.170;6.456;2022-07-05T09:02:50;101680.63;;;28.67;25.76
71793;BME280;59639;51.170;6.456;2022-07-05T09:05:17;101673.78;;;27.66;27.50
71793;BME280;59639;51.170;6.456;2022-07-05T09:07:57;101685.03;;;27.81;27.59
71793;BME280;59639;51.170;6.456;2022-07-05T09:10:26;101685.94;;;26.99;29.10
71793;BME280;59639;51.170;6.456;2022-07-05T09:12:52;101684.59;;;26.90;29.79
71793;BME280;59639;51.170;6.456;2022-07-05T09:15:17;101687.47;;;29.76;25.01
71793;BME280;59639;51.170;6.456;2022-07-05T09:17:46;101682.50;;;31.57;21.76
71793;BME280;59639;51.170;6.456;2022-07-05T09:20:14;101685.00;;;30.35;22.99
71793;BME280;59639;51.170;6.456;2022-07-05T09:22:43;101684.91;;;31.22;22.64
71793;BME280;59639;51.170;6.456;2022-07-05T09:28:03;101687.97;;;29.40;24.95
71793;BME280;59639;51.170;6.456;2022-07-05T09:33:07;101679.78;;;31.31;21.21
71793;BME280;59639;51.170;6.456;2022-07-05T09:35:37;101682.63;;;31.14;21.77
71793;BME280;59639;51.170;6.456;2022-07-05T09:38:04;101684.00;;;29.64;23.32
71793;BME280;59639;51.170;6.456;2022-07-05T09:40:45;101683.22;;;28.34;25.00
71793;BME280;59639;51.170;6.456;2022-07-05T09:43:12;101691.41;;;27.87;25.99
71793;BME280;59639;51.170;6.456;2022-07-05T09:45:38;101683.66;;;31.03;22.03
71793;BME280;59639;51.170;6.456;2022-07-05T09:48:06;101685.41;;;31.83;21.19
71793;BME280;59639;51.170;6.456;2022-07-05T09:50:36;101670.09;;;31.50;21.21
71793;BME280;59639;51.170;6.456;2022-07-05T09:53:02;101677.72;;;31.11;22.38
71793;BME280;59639;51.170;6.456;2022-07-05T09:55:27;101676.38;;;32.34;20.85
71793;BME280;59639;51.170;6.456;2022-07-05T09:57:53;101683.44;;;33.73;19.25
71793;BME280;59639;51.170;6.456;2022-07-05T10:00:22;101680.44;;;33.35;18.58
71793;BME280;59639;51.170;6.456;2022-07-05T10:02:53;101672.16;;;32.84;19.22
71793;BME280;59639;51.170;6.456;2022-07-05T10:07:47;101675.41;;;34.02;17.41
71793;BME280;59639;51.170;6.456;2022-07-05T10:10:18;101681.19;;;32.74;19.24
71793;BME280;59639;51.170;6.456;2022-07-05T10:12:46;101677.41;;;33.66;18.68
71793;BME280;59639;51.170;6.456;2022-07-05T10:15:23;101675.91;;;31.58;20.17
71793;BME280;59639;51.170;6.456;2022-07-05T10:23:06;101685.16;;;29.68;22.96
71793;BME280;59639;51.170;6.456;2022-07-05T10:25:32;101674.22;;;28.73;24.31
71793;BME280;59639;51.170;6.456;2022-07-05T10:28:00;101677.09;;;29.12;24.44
71793;BME280;59639;51.170;6.456;2022-07-05T10:30:26;101682.03;;;29.93;22.78
71793;BME280;59639;51.170;6.456;2022-07-05T10:32:52;101674.22;;;31.20;21.21
71793;BME280;59639;51.170;6.456;2022-07-05T10:35:18;101673.31;;;31.42;20.81
71793;BME280;59639;51.170;6.456;2022-07-05T10:37:44;101672.50;;;32.25;20.08
71793;BME280;59639;51.170;6.456;2022-07-05T10:40:11;101667.25;;;32.19;19.51
71793;BME280;59639;51.170;6.456;2022-07-05T10:45:32;101671.03;;;32.70;19.11
71793;BME280;59639;51.170;6.456;2022-07-05T10:58:35;101674.63;;;27.67;26.02
71793;BME280;59639;51.170;6.456;2022-07-05T11:06:04;101673.09;;;27.59;27.28
71793;BME280;59639;51.170;6.456;2022-07-05T11:08:31;101668.59;;;27.12;27.75
71793;BME280;59639;51.170;6.456;2022-07-05T11:11:16;101670.00;;;27.03;27.05
71793;BME280;59639;51.170;6.456;2022-07-05T11:13:41;101676.06;;;27.16;27.00
71793;BME280;59639;51.170;6.456;2022-07-05T11:16:25;101665.72;;;26.95;26.70
71793;BME280;59639;51.170;6.456;2022-07-05T11:19:04;101671.94;;;27.14;26.96
71793;BME280;59639;51.170;6.456;2022-07-05T11:21:30;101673.56;;;27.03;26.61
71793;BME280;59639;51.170;6.456;2022-07-05T11:24:19;101670.03;;;27.14;26.87
71793;BME280;59639;51.170;6.456;2022-07-05T11:26:48;101665.44;;;27.26;25.49
71793;BME280;59639;51.170;6.456;2022-07-05T11:34:43;101659.72;;;26.75;26.41
71793;BME280;59639;51.170;6.456;2022-07-05T11:37:27;101654.81;;;26.65;26.65
71793;BME280;59639;51.170;6.456;2022-07-05T11:42:35;101651.78;;;27.45;25.42
71793;BME280;59639;51.170;6.456;2022-07-05T11:45:04;101649.63;;;27.23;26.10
71793;BME280;59639;51.170;6.456;2022-07-05T11:47:30;101661.44;;;27.29;26.53
71793;BME280;59639;51.170;6.456;2022-07-05T11:49:57;101650.00;;;27.38;26.42
71793;BME280;59639;51.170;6.456;2022-07-05T11:52:26;101658.22;;;27.20;26.83
71793;BME280;59639;51.170;6.456;2022-07-05T11:54:52;101651.06;;;26.96;26.89
71793;BME280;59639;51.170;6.456;2022-07-05T11:57:18;101660.66;;;26.50;28.01
71793;BME280;59639;51.170;6.456;2022-07-05T11:59:44;101653.97;;;26.17;28.28
71793;BME280;59639;51.170;6.456;2022-07-05T12:02:10;101659.13;;;26.25;28.80
71793;BME280;59639;51.170;6.456;2022-07-05T12:04:35;101652.34;;;26.34;28.67
71793;BME280;59639;51.170;6.456;2022-07-05T12:07:00;101643.53;;;26.98;27.80
71793;BME280;59639;51.170;6.456;2022-07-05T12:09:31;101639.00;;;27.33;26.71
71793;BME280;59639;51.170;6.456;2022-07-05T12:12:20;101638.13;;;27.21;26.93
71793;BME280;59639;51.170;6.456;2022-07-05T12:15:04;101635.16;;;27.11;27.97
71793;BME280;59639;51.170;6.456;2022-07-05T12:17:29;101636.13;;;27.17;26.84
71793;BME280;59639;51.170;6.456;2022-07-05T12:19:55;101630.25;;;27.20;26.66
71793;BME280;59639;51.170;6.456;2022-07-05T12:22:31;101637.28;;;26.97;26.29
71793;BME280;59639;51.170;6.456;2022-07-05T12:24:57;101635.59;;;26.96;26.87
71793;BME280;59639;51.170;6.456;2022-07-05T12:27:27;101634.41;;;26.63;27.80
71793;BME280;59639;51.170;6.456;2022-07-05T12:29:53;101633.78;;;26.31;28.60
71793;BME280;59639;51.170;6.456;2022-07-05T12:32:19;101627.84;;;26.22;28.69
71793;BME280;59639;51.170;6.456;2022-07-05T12:34:44;101627.50;;;26.78;28.40
71793;BME280;59639;51.170;6.456;2022-07-05T12:37:10;101625.72;;;26.72;28.80
71793;BME280;59639;51.170;6.456;2022-07-05T12:39:35;101620.19;;;27.20;27.35
71793;BME280;59639;51.170;6.456;2022-07-05T12:42:00;101612.03;;;27.20;27.30
71793;BME280;59639;51.170;6.456;2022-07-05T12:44:26;101618.00;;;26.87;26.93
71793;BME280;59639;51.170;6.456;2022-07-05T12:46:51;101617.91;;;27.06;27.47
71793;BME280;59639;51.170;6.456;2022-07-05T12:49:19;101614.50;;;26.98;26.62
71793;BME280;59639;51.170;6.456;2022-07-05T12:51:45;101615.69;;;27.26;26.13
71793;BME280;59639;51.170;6.456;2022-07-05T12:54:22;101613.78;;;27.03;27.24
71793;BME280;59639;51.170;6.456;2022-07-05T12:57:07;101607.31;;;27.27;27.13
71793;BME280;59639;51.170;6.456;2022-07-05T13:00:04;101608.47;;;27.08;27.01
71793;BME280;59639;51.170;6.456;2022-07-05T13:02:42;101607.53;;;27.03;26.56
71793;BME280;59639;51.170;6.456;2022-07-05T13:05:20;101611.19;;;27.08;26.74
71793;BME280;59639;51.170;6.456;2022-07-05T13:07:46;101601.16;;;27.09;27.21
71793;BME280;59639;51.170;6.456;2022-07-05T13:10:15;101601.97;;;26.97;26.88
71793;BME280;59639;51.170;6.456;2022-07-05T13:12:41;101597.59;;;26.96;27.31
71793;BME280;59639;51.170;6.456;2022-07-05T13:15:07;101611.69;;;27.28;26.45
71793;BME280;59639;51.170;6.456;2022-07-05T13:17:32;101603.19;;;27.83;25.49
71793;BME280;59639;51.170;6.456;2022-07-05T13:19:57;101605.09;;;27.71;25.45
71793;BME280;59639;51.170;6.456;2022-07-05T13:22:24;101600.59;;;27.65;25.22
71793;BME280;59639;51.170;6.456;2022-07-05T13:24:50;101605.81;;;27.55;24.77
71793;BME280;59639;51.170;6.456;2022-07-05T13:27:15;101608.75;;;27.88;24.72
71793;BME280;59639;51.170;6.456;2022-07-05T13:29:41;101609.19;;;27.97;24.42